Архив погоды в Белозерске

Метеограмма Белозерск
Вторник, 23 Мая
Время местн. Темп Ветер Видим Явления Облачность нижн/средн/верх Атм. давл. Влжн Точка росы ВНГО R Сост. почвы Tg s
Напр Скр Прв ур.ст ур.м изм
15:00 +16.3° С 2 - 10 км - облачно с прояснениями 744 756 -0.4 39% +2.3° 1.5 км - - - -
12:00 +15.5° Ю-З 5 - 10 км - облачно с прояснениями 744 756 -1.1 39% +1.6° 1.5 км - - - -
09:00 +9.9° Ю 4 - 10 км - облачно 746 757 -0.6 50% -0.1° 1 км - - - -
06:00 +6.3° Ю 3 - 10 км - преимущественно облачно 746 758 -1.1 52% -2.8° 1 км - Влажная (без луж) - -
03:00 +3.1° Ю,Ю-В 3 - 10 км - преимущественно облачно 747 764 -0.7 58% -4.4° - - - - -
00:00 +2.6° Ю 2 - 10 км - переменная облачность 748 760 -0.1 59% -4.5° 2.5 км - - - -
Понедельник, 22 Мая
Время местн. Темп Ветер Видим Явления Облачность нижн/средн/верх Атм. давл. Влжн Точка росы ВНГО R Сост. почвы Tg s
Напр Скр Прв ур.ст ур.м изм
21:00 +7.5° штиль 0 - 10 км - облачно 748 760 -0.7 38% -5.9° 1.5 км - - - -
18:00 +10.5° С-В 2 - 10 км - переменная облачность 749 760 -0.8 30% -6.4° 1.5 км - - - -
15:00 +9.6° С 2 - 10 км - переменная облачность 749 761 -0.9 33% -5.9° 1.5 км - - - -
12:00 +7.2° З,С-З 3 - 10 км - облачно с прояснениями 750 762 -0.2 43% -4.6° 1.5 км - - - -
09:00 +5.4° С 3 - 10 км - облачно 751 763 +0.2 51% -4° 1.5 км - - - -
06:00 +4.6° С 3 - 10 км - переменная облачность 750 763 +0.4 51% -4.7° более 2.5 км 0 Влажная (без луж) -2° -
03:00 +3.9° С,С-В 3 - 10 км - переменная облачность 750 762 0 56% -4.1° более 2.5 км - - - -
00:00 +5.5° С 4 - 10 км - преимущественно облачно 750 762 +0.2 53% -3.3° 1.5 км - - - -
Воскресенье, 21 Мая
Время местн. Темп Ветер Видим Явления Облачность нижн/средн/верх Атм. давл. Влжн Точка росы ВНГО R Сост. почвы Tg s
Напр Скр Прв ур.ст ур.м изм
21:00 +7° С 5 10 10 км - преимущественно облачно 750 762 +0.3 45% -4.1° 1.5 км - - - -
18:00 +9.2° С 3 - 10 км - преимущественно облачно 750 762 -0.7 44% -2.4° 1.5 км - - - -
15:00 +9° З,С-З 4 - 10 км - переменная облачность 750 762 -0.7 36% -5.3° 1.5 км - - - -
12:00 +6.5° С,С-З 3 - 10 км - переменная облачность 751 763 +0.1 45% -4.7° 1.5 км - - - -
09:00 +4.2° С,С-В 3 - 10 км - облачно 751 763 -0.1 54% -4.3° 1.5 км - - - -
06:00 +3.7° С,С-В 4 10 10 км - облачно 751 763 +0.5 67% -1.9° 2 км 0 Влажная (без луж) +5° -
03:00 +5.1° С,С-В 4 - 10 км - облачно 750 763 +0.5 68% -0.3° 1.5 км - - - -
00:00 +7.7° С,С-В 4 - 10 км - облачно 750 762 +0.3 71% +2.8° 1.5 км - - - -
Суббота, 20 Мая
Время местн. Темп Ветер Видим Явления Облачность нижн/средн/верх Атм. давл. Влжн Точка росы ВНГО R Сост. почвы Tg s
Напр Скр Прв ур.ст ур.м изм
21:00 +8.3° С 2 - 10 км - облачно 750 762 +1.1 78% +4.7° 1.5 км - - - -
18:00 +9.5° С 5 10 10 км - облачно 749 760 +1.1 78% +5.9° 1 км - - - -
15:00 +10.5° С-З 4 - 10 км небо без изменений {ливневые осадки, дождь} облачно 747 759 +1.5 80% +7.2° 600 м - - - -
12:00 +10.8° С 3 - 4 км слабый непрерывный дождь {ливневые осадки} облачно 746 758 +1 92% +9.6° 600 м - - - -